Accueil
METAR-TAF:

METAR-TAF

Aéroports :

Bingöl, Turquie

latitude: 38-51-40N, longitude: 40-35-33E, altitude: 1063 m

Observation

Le bulletin a été fait il y a 1 heure et 5 minutes, à 08:50 UTC
Vent 2 kt de sud-ouest
Température 3°C
Humidité 48%
Pression 1026 hPa
Visibilité 10 km ou plus
Quelques nuages à une hauteur de 3500 ft

METAR: LTCU 270850Z 22002KT 9999 FEW035 03/M07 Q1026

Heure: 12:55 (09:55 UTC)

Prévision

Le bulletin a été fait il y a 2 heures et 15 minutes, à 07:40 UTC
Prévision valable du 27 à 09 UTC au 27 à 18 UTC
Vent 2 kt de direction variable
Visibilité 10 km ou plus
pas de nuages en-dessous de 1500 mètres et pas de cumulonimbus.
Evoluant progressivement
du 27 à 12 UTC au 27 à 15 UTC
Quelques nuages à une hauteur de 3500 ft
Nuages fragmentés à une hauteur de 10000 ft

TAF: LTCU 270740Z 2709/2718 VRB02KT CAVOK BECMG 2712/2715 FEW035 BKN100

Observations et prévisions météorologiques de plus de 4000 aéroports (messages METAR et TAF).

Les stations disponibles sont représentées par des disques jaunes et rouges sur la carte.

Passer la souris dessus pour voir le nom de la station.

Cliquer dessus pour voir les observations et prévisions météorologiques.

Pour changer de carte: cliquez sur les boutons verts avec une croix noire pour zoomer, sur le bouton vert avec un tiret pour effectuer un zoom arrière, ou sur les flèches vertes pour les cartes adjacentes.


METAR-TAF: